createdAt,value
2018-09-01T00:00:05.217Z,16.10
2018-09-01T00:02:33.318Z,16.00
2018-09-01T00:05:01.423Z,15.99
2018-09-01T00:07:29.498Z,16.01
2018-09-01T00:09:57.604Z,15.97
2018-09-01T00:12:25.682Z,15.89
2018-09-01T00:14:53.747Z,15.88
2018-09-01T00:17:27.217Z,15.97
2018-09-01T00:19:55.361Z,15.93
2018-09-01T00:22:23.455Z,15.95
2018-09-01T00:24:52.526Z,15.86
2018-09-01T00:27:20.891Z,15.89
2018-09-01T00:29:49.369Z,15.76
2018-09-01T00:32:17.460Z,15.77
2018-09-01T00:34:45.540Z,15.79
2018-09-01T00:37:15.918Z,15.83
2018-09-01T00:39:43.948Z,15.79
2018-09-01T00:42:12.588Z,15.74
2018-09-01T00:44:40.733Z,15.80
2018-09-01T00:47:08.950Z,15.77
2018-09-01T00:49:37.046Z,15.77
2018-09-01T00:52:05.117Z,15.72
2018-09-01T00:54:33.212Z,15.72
2018-09-01T00:57:01.312Z,15.76
2018-09-01T00:59:29.419Z,15.72
2018-09-01T01:01:57.504Z,15.70
2018-09-01T01:04:25.608Z,15.63
2018-09-01T01:06:53.734Z,15.59
2018-09-01T01:09:21.812Z,15.60
2018-09-01T01:11:49.890Z,15.57
2018-09-01T01:14:17.969Z,15.64
2018-09-01T01:16:46.049Z,15.61
2018-09-01T01:19:14.204Z,15.60
2018-09-01T01:21:42.296Z,15.59
2018-09-01T01:24:10.355Z,15.49
2018-09-01T01:26:38.429Z,15.55
2018-09-01T01:29:06.497Z,15.57
2018-09-01T01:31:34.599Z,15.49
2018-09-01T01:34:02.691Z,15.37
2018-09-01T01:36:30.771Z,15.41
2018-09-01T01:38:58.848Z,15.54
2018-09-01T01:41:26.938Z,15.41
2018-09-01T01:43:55.012Z,15.40
2018-09-01T01:46:23.063Z,15.36
2018-09-01T01:48:51.143Z,15.29
2018-09-01T01:51:19.216Z,15.30
2018-09-01T01:53:47.311Z,15.36
2018-09-01T01:56:15.395Z,15.29
2018-09-01T01:58:43.471Z,15.36
2018-09-01T02:01:11.532Z,15.31
2018-09-01T02:03:39.603Z,15.23
2018-09-01T02:06:07.696Z,15.21
2018-09-01T02:08:35.816Z,15.28
2018-09-01T02:11:03.886Z,15.25
2018-09-01T02:13:32.039Z,15.25
2018-09-01T02:16:00.141Z,15.30
2018-09-01T02:18:28.223Z,15.21
2018-09-01T02:20:56.302Z,15.15
2018-09-01T02:23:24.390Z,15.07
2018-09-01T02:25:52.456Z,15.00
2018-09-01T02:28:20.511Z,14.97
2018-09-01T02:30:48.603Z,14.92
2018-09-01T02:33:16.727Z,14.88
2018-09-01T02:35:44.799Z,14.89
2018-09-01T02:38:12.891Z,14.95
2018-09-01T02:40:41.172Z,14.86
2018-09-01T02:43:09.283Z,14.88
2018-09-01T02:45:37.367Z,14.97
2018-09-01T02:48:06.148Z,14.96
2018-09-01T02:50:34.309Z,14.88
2018-09-01T02:53:02.413Z,14.90
2018-09-01T02:55:30.529Z,14.77
2018-09-01T02:57:58.630Z,14.74
2018-09-01T03:00:32.098Z,14.72
2018-09-01T03:03:00.170Z,14.69
2018-09-01T03:05:28.322Z,14.62
2018-09-01T03:07:56.420Z,14.65
2018-09-01T03:10:24.566Z,14.72
2018-09-01T03:12:52.756Z,14.66
2018-09-01T03:15:20.844Z,14.62
2018-09-01T03:17:48.973Z,14.65
2018-09-01T03:20:17.065Z,14.70
2018-09-01T03:22:45.168Z,14.66
2018-09-01T03:25:13.339Z,14.66
2018-09-01T03:27:41.421Z,14.65
2018-09-01T03:30:09.500Z,14.65
2018-09-01T03:32:37.615Z,14.68
2018-09-01T03:35:06.218Z,14.64
2018-09-01T03:37:34.297Z,14.56
2018-09-01T03:40:02.429Z,14.58
2018-09-01T03:42:30.507Z,14.47
2018-09-01T03:44:58.568Z,14.44
2018-09-01T03:47:26.631Z,14.50
2018-09-01T03:49:54.724Z,14.56
2018-09-01T03:52:29.632Z,14.47
2018-09-01T03:54:57.695Z,14.55
2018-09-01T03:57:25.847Z,14.56
2018-09-01T03:59:53.900Z,14.49
2018-09-01T04:02:21.972Z,14.64
2018-09-01T04:04:50.043Z,14.69
2018-09-01T04:07:18.147Z,14.65
2018-09-01T04:09:46.227Z,14.63
2018-09-01T04:12:14.340Z,14.58
2018-09-01T04:14:42.400Z,14.47
2018-09-01T04:17:10.491Z,14.56
2018-09-01T04:19:38.577Z,14.47
2018-09-01T04:22:06.683Z,14.37
2018-09-01T04:24:34.793Z,14.37
2018-09-01T04:27:02.929Z,14.38
2018-09-01T04:29:31.055Z,14.31
2018-09-01T04:31:59.186Z,14.30
2018-09-01T04:34:27.223Z,14.39
2018-09-01T04:36:55.387Z,14.32
2018-09-01T04:39:23.475Z,14.38
2018-09-01T04:41:51.638Z,14.35
2018-09-01T04:44:19.712Z,14.23
2018-09-01T04:46:47.790Z,14.25
2018-09-01T04:49:15.867Z,14.19
2018-09-01T04:51:43.952Z,14.15
2018-09-01T04:54:12.015Z,14.22
2018-09-01T04:56:40.128Z,14.16
2018-09-01T04:59:09.228Z,14.10
2018-09-01T05:01:37.342Z,14.08
2018-09-01T05:04:05.398Z,14.06
2018-09-01T05:06:33.538Z,14.09
2018-09-01T05:09:01.610Z,13.99
2018-09-01T05:11:29.723Z,14.01
2018-09-01T05:13:57.795Z,14.03
2018-09-01T05:16:25.926Z,14.06
2018-09-01T05:18:53.941Z,14.03
2018-09-01T05:21:22.028Z,14.06
2018-09-01T05:23:50.097Z,14.08
2018-09-01T05:26:18.159Z,14.08
2018-09-01T05:28:46.263Z,14.11
2018-09-01T05:31:14.345Z,14.10
2018-09-01T05:33:42.607Z,14.03
2018-09-01T05:36:10.688Z,14.03
2018-09-01T05:38:38.898Z,13.99
2018-09-01T05:41:07.026Z,14.01
2018-09-01T05:43:35.183Z,14.00
2018-09-01T05:46:03.239Z,14.03
2018-09-01T05:48:31.306Z,14.08
2018-09-01T05:50:59.499Z,13.98
2018-09-01T05:53:27.570Z,14.01
2018-09-01T05:55:55.736Z,14.04
2018-09-01T05:58:23.837Z,14.05
2018-09-01T06:00:51.943Z,14.08
2018-09-01T06:03:20.007Z,14.08
2018-09-01T06:05:48.734Z,14.11
2018-09-01T06:08:17.170Z,14.14
2018-09-01T06:10:45.262Z,14.15
2018-09-01T06:13:13.323Z,14.18
2018-09-01T06:18:35.762Z,14.26
2018-09-01T06:21:03.860Z,14.25
2018-09-01T06:23:31.923Z,14.34
2018-09-01T06:26:00.077Z,14.41
2018-09-01T06:28:33.048Z,14.46
2018-09-01T06:31:01.151Z,14.56
2018-09-01T06:33:29.313Z,14.61
2018-09-01T06:35:57.421Z,14.60
2018-09-01T06:38:25.564Z,14.65
2018-09-01T06:40:53.703Z,14.73
2018-09-01T06:43:21.907Z,14.74
2018-09-01T06:45:49.977Z,14.92
2018-09-01T06:48:18.409Z,14.94
2018-09-01T06:50:46.481Z,15.02
2018-09-01T06:53:14.551Z,15.04
2018-09-01T06:55:42.623Z,15.07
2018-09-01T06:58:10.710Z,15.18
2018-09-01T07:00:38.759Z,15.20
2018-09-01T07:03:06.830Z,15.21
2018-09-01T07:05:34.918Z,15.29
2018-09-01T07:08:03.054Z,15.36
2018-09-01T07:10:31.135Z,15.45
2018-09-01T07:12:59.206Z,15.52
2018-09-01T07:15:27.287Z,15.61
2018-09-01T07:17:55.420Z,15.71
2018-09-01T07:20:23.495Z,15.78
2018-09-01T07:22:57.991Z,15.91
2018-09-01T07:25:26.730Z,16.02
2018-09-01T07:27:54.810Z,16.11
2018-09-01T07:30:22.916Z,16.19
2018-09-01T07:32:51.047Z,16.36
2018-09-01T07:35:19.170Z,16.52
2018-09-01T07:37:47.259Z,16.62
2018-09-01T07:40:15.412Z,16.68
2018-09-01T07:42:43.589Z,16.74
2018-09-01T07:45:11.732Z,16.75
2018-09-01T07:47:39.869Z,16.83
2018-09-01T07:50:08.096Z,16.91
2018-09-01T07:52:36.143Z,16.95
2018-09-01T07:55:04.251Z,17.02
2018-09-01T07:57:32.341Z,17.17
2018-09-01T08:00:00.412Z,17.22
2018-09-01T08:02:28.498Z,17.22
2018-09-01T08:04:56.561Z,17.22
2018-09-01T08:07:24.670Z,17.24
2018-09-01T08:09:52.793Z,17.28
2018-09-01T08:12:20.894Z,17.34
2018-09-01T08:14:48.960Z,17.33
2018-09-01T08:17:17.084Z,17.35
2018-09-01T08:19:45.139Z,17.40
2018-09-01T08:22:13.221Z,17.56
2018-09-01T08:24:41.274Z,17.64
2018-09-01T08:27:09.386Z,17.74
2018-09-01T08:29:37.474Z,17.85
2018-09-01T08:32:05.567Z,17.83
2018-09-01T08:34:33.638Z,17.91
2018-09-01T08:37:01.751Z,18.00
2018-09-01T08:39:29.832Z,17.98
2018-09-01T08:41:57.914Z,18.01
2018-09-01T08:44:25.983Z,18.07
2018-09-01T08:46:54.039Z,18.13
2018-09-01T08:49:22.115Z,18.20
2018-09-01T08:51:50.174Z,18.26
2018-09-01T08:54:18.313Z,18.32
2018-09-01T08:56:46.367Z,18.36
2018-09-01T08:59:14.451Z,18.36
2018-09-01T09:01:42.772Z,18.36
2018-09-01T09:04:10.859Z,18.52
2018-09-01T09:06:38.927Z,18.51
2018-09-01T09:09:07.243Z,18.61
2018-09-01T09:11:36.526Z,18.71
2018-09-01T09:14:04.603Z,18.78
2018-09-01T09:16:32.643Z,18.75
2018-09-01T09:19:00.716Z,18.90
2018-09-01T09:21:28.822Z,19.05
2018-09-01T09:23:56.885Z,19.13
2018-09-01T09:26:24.943Z,19.20
2018-09-01T09:28:53.019Z,19.19
2018-09-01T09:31:21.104Z,19.22
2018-09-01T09:33:49.165Z,19.26
2018-09-01T09:36:17.254Z,19.26
2018-09-01T09:38:45.361Z,19.34
2018-09-01T09:41:13.462Z,19.41
2018-09-01T09:43:41.663Z,19.57
2018-09-01T09:46:09.785Z,19.60
2018-09-01T09:48:37.878Z,19.56
2018-09-01T09:51:05.944Z,19.58
2018-09-01T09:53:34.108Z,19.67
2018-09-01T09:56:02.170Z,19.64
2018-09-01T09:58:30.239Z,19.75
2018-09-01T10:01:03.449Z,19.78
2018-09-01T10:03:31.486Z,19.83
2018-09-01T10:05:59.593Z,19.94
2018-09-01T10:08:27.663Z,19.87
2018-09-01T10:10:55.932Z,19.93
2018-09-01T10:13:23.972Z,20.10
2018-09-01T10:15:52.067Z,20.12
2018-09-01T10:18:20.195Z,20.12
2018-09-01T10:20:48.299Z,20.26
2018-09-01T10:23:16.426Z,20.35
2018-09-01T10:25:44.524Z,20.43
2018-09-01T10:28:12.590Z,20.38
2018-09-01T10:30:40.683Z,20.41
2018-09-01T10:33:08.767Z,20.48
2018-09-01T10:35:36.851Z,20.54
2018-09-01T10:38:04.985Z,20.56
2018-09-01T10:40:33.070Z,20.47
2018-09-01T10:43:01.159Z,20.51
2018-09-01T10:45:29.202Z,20.62
2018-09-01T10:47:57.299Z,20.62
2018-09-01T10:50:25.348Z,20.69
2018-09-01T10:52:53.456Z,20.66
2018-09-01T10:55:21.553Z,20.76
2018-09-01T10:57:49.602Z,20.81
2018-09-01T11:00:20.459Z,20.94
2018-09-01T11:02:49.902Z,21.05
2018-09-01T11:05:18.101Z,21.06
2018-09-01T11:07:46.166Z,21.09
2018-09-01T11:10:14.284Z,21.07
2018-09-01T11:12:42.369Z,21.15
2018-09-01T11:15:10.460Z,21.21
2018-09-01T11:17:38.538Z,21.33
2018-09-01T11:20:06.621Z,21.44
2018-09-01T11:22:34.727Z,21.58
2018-09-01T11:25:02.851Z,21.64
2018-09-01T11:27:30.960Z,21.64
2018-09-01T11:29:59.008Z,21.60
2018-09-01T11:32:27.430Z,21.66
2018-09-01T11:34:55.546Z,21.79
2018-09-01T11:37:23.653Z,21.89
2018-09-01T11:39:51.748Z,21.85
2018-09-01T11:42:19.847Z,21.77
2018-09-01T11:44:47.930Z,21.82
2018-09-01T11:47:16.030Z,21.87
2018-09-01T11:49:44.282Z,21.96
2018-09-01T11:52:12.581Z,22.12
2018-09-01T11:54:40.652Z,22.14
2018-09-01T11:57:08.859Z,22.14
2018-09-01T11:59:36.962Z,22.12
2018-09-01T12:02:05.088Z,22.08
2018-09-01T12:04:33.167Z,22.01
2018-09-01T12:07:01.243Z,22.14
2018-09-01T12:09:29.374Z,22.34
2018-09-01T12:11:57.383Z,22.35
2018-09-01T12:14:25.484Z,22.17
2018-09-01T12:16:53.554Z,22.03
2018-09-01T12:19:21.660Z,22.04
2018-09-01T12:21:49.731Z,22.12
2018-09-01T12:24:17.794Z,22.10
2018-09-01T12:26:46.145Z,22.05
2018-09-01T12:29:14.202Z,22.18
2018-09-01T12:31:42.343Z,22.19
2018-09-01T12:34:10.539Z,22.10
2018-09-01T12:36:38.603Z,22.07
2018-09-01T12:39:06.851Z,22.09
2018-09-01T12:41:34.999Z,22.16
2018-09-01T12:44:03.075Z,22.12
2018-09-01T12:46:31.163Z,22.13
2018-09-01T12:48:59.218Z,22.16
2018-09-01T12:51:27.296Z,22.13
2018-09-01T12:53:55.485Z,22.08
2018-09-01T12:56:23.567Z,22.06
2018-09-01T12:58:51.659Z,22.18
2018-09-01T13:01:19.794Z,22.22
2018-09-01T13:03:47.884Z,22.24
2018-09-01T13:06:15.987Z,22.23
2018-09-01T13:08:44.059Z,22.20
2018-09-01T13:11:12.173Z,22.28
2018-09-01T13:13:40.231Z,22.26
2018-09-01T13:16:08.298Z,22.22
2018-09-01T13:18:36.448Z,22.26
2018-09-01T13:21:04.507Z,22.38
2018-09-01T13:23:32.574Z,22.33
2018-09-01T13:26:00.672Z,22.39
2018-09-01T13:28:28.727Z,22.39
2018-09-01T13:30:56.804Z,22.36
2018-09-01T13:33:24.886Z,22.39
2018-09-01T13:35:52.947Z,22.40
2018-09-01T13:38:21.023Z,22.36
2018-09-01T13:40:49.123Z,22.47
2018-09-01T13:43:17.212Z,22.52
2018-09-01T13:45:45.284Z,22.48
2018-09-01T13:48:13.769Z,22.49
2018-09-01T13:50:42.707Z,22.52
2018-09-01T13:53:11.957Z,22.63
2018-09-01T13:55:40.646Z,22.69
2018-09-01T13:58:08.894Z,22.72
2018-09-01T14:00:37.077Z,22.74
2018-09-01T14:03:05.720Z,22.78
2018-09-01T14:05:34.309Z,22.78
2018-09-01T14:08:02.993Z,22.84
2018-09-01T14:10:31.257Z,22.96
2018-09-01T14:12:59.476Z,22.98
2018-09-01T14:15:28.261Z,22.86
2018-09-01T14:17:56.458Z,22.70
2018-09-01T14:20:24.540Z,22.78
2018-09-01T14:22:52.607Z,22.86
2018-09-01T14:25:20.763Z,22.93
2018-09-01T14:27:48.875Z,22.91
2018-09-01T14:30:16.945Z,22.81
2018-09-01T14:32:45.006Z,22.75
2018-09-01T14:35:13.114Z,22.83
2018-09-01T14:37:41.235Z,22.74
2018-09-01T14:40:09.383Z,22.83
2018-09-01T14:42:37.484Z,22.80
2018-09-01T14:45:05.554Z,22.91
2018-09-01T14:47:33.752Z,22.85
2018-09-01T14:50:01.789Z,22.89
2018-09-01T14:52:29.929Z,22.84
2018-09-01T14:54:58.005Z,22.80
2018-09-01T14:57:26.191Z,22.85
2018-09-01T14:59:54.291Z,22.80
2018-09-01T15:02:22.364Z,22.89
2018-09-01T15:04:50.477Z,22.96
2018-09-01T15:07:18.575Z,22.97
2018-09-01T15:09:46.659Z,23.04
2018-09-01T15:12:14.768Z,23.03
2018-09-01T15:14:42.876Z,23.10
2018-09-01T15:17:11.023Z,22.96
2018-09-01T15:19:39.099Z,22.93
2018-09-01T15:22:07.339Z,22.82
2018-09-01T15:24:35.490Z,22.87
2018-09-01T15:27:03.604Z,23.00
2018-09-01T15:29:31.933Z,23.05
2018-09-01T15:32:00.618Z,23.11
2018-09-01T15:34:28.935Z,23.01
2018-09-01T15:36:57.169Z,22.99
2018-09-01T15:39:25.575Z,22.94
2018-09-01T15:41:57.810Z,22.98
2018-09-01T15:44:25.946Z,22.84
2018-09-01T15:46:54.155Z,22.94
2018-09-01T15:49:22.360Z,22.94
2018-09-01T15:51:50.640Z,22.93
2018-09-01T15:54:19.786Z,22.86
2018-09-01T15:56:47.994Z,22.89
2018-09-01T15:59:16.207Z,22.93
2018-09-01T16:01:45.679Z,22.89
2018-09-01T16:04:13.943Z,22.89
2018-09-01T16:06:42.754Z,22.85
2018-09-01T16:09:11.238Z,23.02
2018-09-01T16:11:43.868Z,22.99
2018-09-01T16:14:13.148Z,22.99
2018-09-01T16:16:42.177Z,22.90
2018-09-01T16:19:10.999Z,22.89
2018-09-01T16:21:39.743Z,22.82
2018-09-01T16:24:09.596Z,22.84
2018-09-01T16:26:39.266Z,22.80
2018-09-01T16:29:10.524Z,22.70
2018-09-01T16:31:43.629Z,22.69
2018-09-01T16:34:12.780Z,22.68
2018-09-01T16:36:41.149Z,22.68
2018-09-01T16:39:12.952Z,22.68
2018-09-01T16:41:43.112Z,22.67
2018-09-01T16:44:12.917Z,22.61
2018-09-01T16:46:42.695Z,22.68
2018-09-01T16:49:10.996Z,22.58
2018-09-01T16:51:39.153Z,22.54
2018-09-01T16:54:07.771Z,22.58
2018-09-01T16:56:36.046Z,22.51
2018-09-01T16:59:04.459Z,22.47
2018-09-01T17:01:33.613Z,22.45
2018-09-01T17:04:01.911Z,22.40
2018-09-01T17:06:30.780Z,22.37
2018-09-01T17:08:59.613Z,22.34
2018-09-01T17:11:28.555Z,22.31
2018-09-01T17:13:56.782Z,22.30
2018-09-01T17:16:25.099Z,22.32
2018-09-01T17:18:53.360Z,22.33
2018-09-01T17:21:24.825Z,22.17
2018-09-01T17:23:55.162Z,22.13
2018-09-01T17:26:25.685Z,22.08
2018-09-01T17:28:53.970Z,22.07
2018-09-01T17:31:22.442Z,22.04
2018-09-01T17:33:51.039Z,21.99
2018-09-01T17:36:19.454Z,22.00
2018-09-01T17:38:47.800Z,21.95
2018-09-01T17:41:16.770Z,21.94
2018-09-01T17:43:44.949Z,21.76
2018-09-01T17:46:14.280Z,21.74
2018-09-01T17:48:42.506Z,21.69
2018-09-01T17:51:11.049Z,21.61
2018-09-01T17:53:39.255Z,21.63
2018-09-01T17:56:07.586Z,21.53
2018-09-01T17:58:36.061Z,21.44
2018-09-01T18:01:05.761Z,21.53
2018-09-01T18:03:36.785Z,21.44
2018-09-01T18:06:05.883Z,21.38
2018-09-01T18:08:41.338Z,21.23
2018-09-01T18:13:54.480Z,21.27
2018-09-01T18:16:24.713Z,21.19
2018-09-01T18:18:59.404Z,21.06
2018-09-01T18:21:36.844Z,21.00
2018-09-01T18:24:08.140Z,21.02
2018-09-01T18:26:45.732Z,20.92
2018-09-01T18:29:14.356Z,20.86
2018-09-01T18:31:45.736Z,20.92
2018-09-01T18:34:20.454Z,20.88
2018-09-01T18:36:49.066Z,20.76
2018-09-01T18:39:19.592Z,20.69
2018-09-01T18:41:48.881Z,20.61
2018-09-01T18:44:17.154Z,20.59
2018-09-01T18:46:46.240Z,20.57
2018-09-01T18:49:29.234Z,20.47
2018-09-01T18:52:05.497Z,20.37
2018-09-01T18:54:33.711Z,20.34
2018-09-01T18:57:02.115Z,20.23
2018-09-01T18:59:30.545Z,20.15
2018-09-01T19:02:01.312Z,20.16
2018-09-01T19:04:43.426Z,20.11
2018-09-01T19:07:12.936Z,19.97
2018-09-01T19:09:44.781Z,19.98
2018-09-01T19:12:14.178Z,19.82
2018-09-01T19:14:43.493Z,19.87
2018-09-01T19:17:12.502Z,19.85
2018-09-01T19:19:45.898Z,19.81
2018-09-01T19:22:14.139Z,19.77
2018-09-01T19:24:43.157Z,19.67
2018-09-01T19:27:14.203Z,19.67
2018-09-01T19:29:43.829Z,19.64
2018-09-01T19:32:18.282Z,19.57
2018-09-01T19:34:48.211Z,19.51
2018-09-01T19:37:19.908Z,19.38
2018-09-01T19:42:24.190Z,19.33
2018-09-01T19:44:52.866Z,19.14
2018-09-01T19:47:22.307Z,19.08
2018-09-01T19:49:53.301Z,19.19
2018-09-01T19:52:21.543Z,19.11
2018-09-01T19:54:54.918Z,19.08
2018-09-01T19:57:27.859Z,19.05
2018-09-01T19:59:56.569Z,19.03
2018-09-01T20:02:25.127Z,19.01
2018-09-01T20:04:55.758Z,19.04
2018-09-01T20:07:24.722Z,19.07
2018-09-01T20:09:55.427Z,19.00
2018-09-01T20:12:28.056Z,18.99
2018-09-01T20:15:06.823Z,18.95
2018-09-01T20:17:39.127Z,18.90
2018-09-01T20:20:11.674Z,18.83
2018-09-01T20:22:41.558Z,18.71
2018-09-01T20:25:11.870Z,18.74
2018-09-01T20:27:42.309Z,18.74
2018-09-01T20:30:15.948Z,18.75
2018-09-01T20:32:51.382Z,18.73
2018-09-01T20:35:28.675Z,18.64
2018-09-01T20:37:59.608Z,18.64
2018-09-01T20:40:33.255Z,18.57
2018-09-01T20:43:06.298Z,18.62
2018-09-01T20:45:37.812Z,18.64
2018-09-01T20:48:06.028Z,18.50
2018-09-01T20:50:35.483Z,18.42
2018-09-01T20:53:03.791Z,18.54
2018-09-01T20:55:36.582Z,18.51
2018-09-01T20:58:05.212Z,18.43
2018-09-01T21:00:38.868Z,18.42
2018-09-01T21:03:07.193Z,18.47
2018-09-01T21:05:41.951Z,18.42
2018-09-01T21:08:12.475Z,18.35
2018-09-01T21:10:47.124Z,18.37
2018-09-01T21:13:15.486Z,18.28
2018-09-01T21:15:45.819Z,18.28
2018-09-01T21:18:16.205Z,18.25
2018-09-01T21:20:45.433Z,18.36
2018-09-01T21:23:14.753Z,18.32
2018-09-01T21:25:43.666Z,18.30
2018-09-01T21:28:16.519Z,18.30
2018-09-01T21:30:45.780Z,18.27
2018-09-01T21:33:14.049Z,18.29
2018-09-01T21:35:43.941Z,18.25
2018-09-01T21:38:12.718Z,18.17
2018-09-01T21:40:45.889Z,18.05
2018-09-01T21:43:15.864Z,18.10
2018-09-01T21:45:45.206Z,18.15
2018-09-01T21:48:16.732Z,18.15
2018-09-01T21:50:44.941Z,18.09
2018-09-01T21:53:14.125Z,18.02
2018-09-01T21:55:42.304Z,17.98
2018-09-01T21:58:10.530Z,17.96
2018-09-01T22:01:06.313Z,17.97
2018-09-01T22:03:38.645Z,17.93
2018-09-01T22:06:06.569Z,17.86
2018-09-01T22:08:35.029Z,17.70
2018-09-01T22:11:06.409Z,17.88
2018-09-01T22:13:35.351Z,17.92
2018-09-01T22:16:03.872Z,17.76
2018-09-01T22:18:32.195Z,17.85
2018-09-01T22:21:00.404Z,17.72
2018-09-01T22:23:28.587Z,17.71
2018-09-01T22:25:56.890Z,17.72
2018-09-01T22:28:25.136Z,17.70
2018-09-01T22:30:54.012Z,17.65
2018-09-01T22:33:22.266Z,17.71
2018-09-01T22:35:52.392Z,17.62
2018-09-01T22:38:21.270Z,17.61
2018-09-01T22:40:49.546Z,17.53
2018-09-01T22:43:18.077Z,17.48
2018-09-01T22:45:47.020Z,17.51
2018-09-01T22:48:15.248Z,17.50
2018-09-01T22:50:43.561Z,17.48
2018-09-01T22:53:12.660Z,17.31
2018-09-01T22:55:42.645Z,17.39
2018-09-01T22:58:11.905Z,17.47
2018-09-01T23:00:40.139Z,17.39
2018-09-01T23:03:08.537Z,17.38
2018-09-01T23:05:37.276Z,17.29
2018-09-01T23:08:06.935Z,17.29
2018-09-01T23:10:36.243Z,17.26
2018-09-01T23:13:05.683Z,17.33
2018-09-01T23:15:34.017Z,17.29
2018-09-01T23:18:03.168Z,17.33
2018-09-01T23:20:32.105Z,17.38
2018-09-01T23:23:01.216Z,17.26
2018-09-01T23:25:30.100Z,17.37
2018-09-01T23:27:59.208Z,17.20
2018-09-01T23:30:30.108Z,17.10
2018-09-01T23:32:58.192Z,17.18
2018-09-01T23:35:26.329Z,17.08
2018-09-01T23:37:54.545Z,16.98
2018-09-01T23:40:22.706Z,16.75
2018-09-01T23:42:50.806Z,16.75
2018-09-01T23:45:19.071Z,16.54
2018-09-01T23:47:47.244Z,16.27
2018-09-01T23:50:15.332Z,15.85
2018-09-01T23:52:43.467Z,15.78
2018-09-01T23:55:11.569Z,15.40
2018-09-01T23:57:39.726Z,15.24
